createdAt,value
2023-07-07T00:00:24.197Z,3.63
2023-07-07T00:02:25.898Z,3.60
2023-07-07T00:04:28.924Z,3.80
2023-07-07T00:06:30.734Z,4.03
2023-07-07T00:08:32.561Z,3.57
2023-07-07T00:10:35.655Z,3.97
2023-07-07T00:12:37.428Z,3.50
2023-07-07T00:14:39.115Z,4.07
2023-07-07T00:16:40.841Z,4.17
2023-07-07T00:18:42.564Z,4.60
2023-07-07T00:20:44.389Z,4.53
2023-07-07T00:22:46.052Z,3.83
2023-07-07T00:24:47.640Z,3.40
2023-07-07T00:26:50.763Z,4.53
2023-07-07T00:28:52.757Z,3.90
2023-07-07T00:30:54.450Z,4.53
2023-07-07T00:32:56.227Z,4.60
2023-07-07T00:34:58.097Z,4.23
2023-07-07T00:36:59.772Z,4.70
2023-07-07T00:39:01.424Z,4.23
2023-07-07T00:41:04.875Z,4.03
2023-07-07T00:43:11.611Z,4.20
2023-07-07T00:45:16.496Z,4.47
2023-07-07T00:47:18.695Z,4.00
2023-07-07T00:49:22.560Z,4.70
2023-07-07T00:51:28.169Z,4.50
2023-07-07T00:53:31.218Z,4.60
2023-07-07T00:55:37.454Z,5.57
2023-07-07T00:57:41.930Z,4.63
2023-07-07T00:59:47.517Z,4.80
2023-07-07T01:01:55.222Z,5.23
2023-07-07T01:04:00.769Z,4.63
2023-07-07T01:06:03.507Z,4.97
2023-07-07T01:08:06.357Z,4.30
2023-07-07T01:10:08.520Z,4.50
2023-07-07T01:12:12.033Z,5.00
2023-07-07T01:14:18.322Z,4.50
2023-07-07T01:16:31.074Z,5.13
2023-07-07T01:18:45.090Z,5.07
2023-07-07T01:20:52.914Z,4.70
2023-07-07T01:23:36.028Z,4.67
2023-07-07T01:25:58.062Z,4.50
2023-07-07T01:28:25.432Z,4.87
2023-07-07T01:30:36.527Z,4.67
2023-07-07T01:32:39.176Z,4.73
2023-07-07T01:34:41.159Z,4.83
2023-07-07T01:36:42.870Z,4.30
2023-07-07T01:38:47.097Z,4.97
2023-07-07T01:40:53.710Z,3.83
2023-07-07T01:43:01.058Z,4.20
2023-07-07T01:45:11.563Z,4.17
2023-07-07T01:47:17.936Z,4.13
2023-07-07T01:49:23.888Z,4.50
2023-07-07T01:51:32.549Z,4.43
2023-07-07T01:53:36.304Z,3.90
2023-07-07T01:55:42.767Z,3.97
2023-07-07T01:57:47.107Z,4.13
2023-07-07T01:59:48.877Z,4.23
2023-07-07T02:01:51.317Z,4.90
2023-07-07T02:03:54.329Z,3.87
2023-07-07T02:05:55.998Z,5.00
2023-07-07T02:07:57.691Z,4.40
2023-07-07T02:09:59.384Z,4.33
2023-07-07T02:12:01.402Z,3.90
2023-07-07T02:14:03.111Z,3.67
2023-07-07T02:16:05.290Z,4.53
2023-07-07T02:18:07.357Z,4.40
2023-07-07T02:20:11.617Z,3.90
2023-07-07T02:22:13.534Z,4.47
2023-07-07T02:24:15.180Z,4.33
2023-07-07T02:26:17.302Z,4.30
2023-07-07T02:28:18.942Z,4.97
2023-07-07T02:30:20.542Z,5.17
2023-07-07T02:32:22.237Z,4.77
2023-07-07T02:34:23.918Z,5.40
2023-07-07T02:36:27.079Z,4.80
2023-07-07T02:38:29.755Z,4.97
2023-07-07T02:40:31.470Z,5.73
2023-07-07T02:42:33.150Z,4.90
2023-07-07T02:44:34.866Z,5.10
2023-07-07T02:46:36.555Z,5.23
2023-07-07T02:48:38.786Z,5.07
2023-07-07T02:50:40.599Z,5.00
2023-07-07T02:52:43.629Z,5.13
2023-07-07T02:54:45.258Z,4.70
2023-07-07T02:56:46.921Z,5.80
2023-07-07T02:58:48.564Z,5.87
2023-07-07T03:00:50.321Z,5.83
2023-07-07T03:02:52.152Z,5.20
2023-07-07T03:04:53.829Z,4.83
2023-07-07T03:06:55.410Z,5.80
2023-07-07T03:08:58.422Z,4.77
2023-07-07T03:11:05.041Z,4.87
2023-07-07T03:13:07.356Z,5.50
2023-07-07T03:15:09.621Z,5.37
2023-07-07T03:17:11.303Z,5.57
2023-07-07T03:19:13.805Z,5.40
2023-07-07T03:21:17.653Z,5.17
2023-07-07T03:23:19.427Z,5.40
2023-07-07T03:25:22.390Z,5.17
2023-07-07T03:27:24.013Z,5.00
2023-07-07T03:29:25.708Z,4.70
2023-07-07T03:31:29.465Z,5.73
2023-07-07T03:33:31.109Z,5.60
2023-07-07T03:35:32.752Z,5.70
2023-07-07T03:37:34.354Z,4.90
2023-07-07T03:39:36.011Z,5.70
2023-07-07T03:41:39.053Z,5.30
2023-07-07T03:43:40.685Z,5.57
2023-07-07T03:45:42.325Z,4.97
2023-07-07T03:47:44.597Z,5.37
2023-07-07T03:49:47.732Z,5.73
2023-07-07T03:51:49.513Z,5.50
2023-07-07T03:53:51.844Z,4.70
2023-07-07T03:55:53.601Z,5.10
2023-07-07T03:57:57.040Z,5.30
2023-07-07T03:59:58.597Z,5.40
2023-07-07T04:02:00.172Z,5.30
2023-07-07T04:04:02.136Z,5.20
2023-07-07T04:06:04.422Z,5.40
2023-07-07T04:08:06.418Z,4.90
2023-07-07T04:10:08.831Z,5.17
2023-07-07T04:12:10.903Z,5.13
2023-07-07T04:14:13.884Z,5.50
2023-07-07T04:16:18.105Z,5.43
2023-07-07T04:18:19.710Z,5.07
2023-07-07T04:20:21.310Z,4.83
2023-07-07T04:22:23.029Z,4.80
2023-07-07T04:24:24.624Z,4.43
2023-07-07T04:26:28.830Z,3.50
2023-07-07T04:28:30.858Z,4.03
2023-07-07T04:30:34.013Z,4.27
2023-07-07T04:32:35.754Z,3.30
2023-07-07T04:34:37.438Z,3.77
2023-07-07T04:36:39.040Z,3.20
2023-07-07T04:38:40.641Z,4.53
2023-07-07T04:40:42.279Z,4.93
2023-07-07T04:42:43.853Z,3.67
2023-07-07T04:44:45.681Z,4.60
2023-07-07T04:46:48.782Z,5.20
2023-07-07T04:48:50.569Z,3.67
2023-07-07T04:50:52.211Z,3.80
2023-07-07T04:52:53.876Z,4.37
2023-07-07T04:54:55.465Z,5.10
2023-07-07T04:56:57.071Z,4.50
2023-07-07T04:58:58.719Z,4.03
2023-07-07T05:01:07.821Z,4.10
2023-07-07T05:03:10.775Z,3.90
2023-07-07T05:05:12.385Z,4.30
2023-07-07T05:07:14.002Z,4.40
2023-07-07T05:09:15.758Z,3.90
2023-07-07T05:11:19.498Z,4.93
2023-07-07T05:13:21.233Z,3.80
2023-07-07T05:15:24.635Z,4.23
2023-07-07T05:17:26.456Z,4.13
2023-07-07T05:19:29.493Z,4.00
2023-07-07T05:21:31.107Z,3.63
2023-07-07T05:23:32.908Z,4.23
2023-07-07T05:25:34.486Z,5.10
2023-07-07T05:27:36.167Z,4.60
2023-07-07T05:29:37.795Z,3.97
2023-07-07T05:31:39.386Z,4.77
2023-07-07T05:33:41.163Z,4.30
2023-07-07T05:35:51.260Z,3.97
2023-07-07T05:37:52.853Z,4.63
2023-07-07T05:39:54.493Z,5.27
2023-07-07T05:41:56.351Z,5.60
2023-07-07T05:43:57.944Z,5.40
2023-07-07T05:46:02.670Z,5.50
2023-07-07T05:48:06.006Z,4.00
2023-07-07T05:50:09.895Z,3.40
2023-07-07T05:52:12.939Z,4.83
2023-07-07T05:54:14.609Z,4.70
2023-07-07T05:56:19.795Z,4.20
2023-07-07T05:58:21.447Z,5.50
2023-07-07T06:00:23.453Z,5.17
2023-07-07T06:02:25.213Z,4.50
2023-07-07T06:04:26.839Z,5.83
2023-07-07T06:06:28.461Z,5.40
2023-07-07T06:08:31.461Z,5.97
2023-07-07T06:10:33.113Z,5.30
2023-07-07T06:12:34.891Z,5.00
2023-07-07T06:14:36.686Z,4.67
2023-07-07T06:16:38.431Z,6.87
2023-07-07T06:18:40.082Z,5.73
2023-07-07T06:20:41.880Z,5.63
2023-07-07T06:22:45.880Z,5.87
2023-07-07T06:24:48.960Z,5.20
2023-07-07T06:26:50.589Z,5.40
2023-07-07T06:28:52.208Z,5.10
2023-07-07T06:30:54.398Z,5.10
2023-07-07T06:32:56.367Z,4.73
2023-07-07T06:34:58.222Z,4.83
2023-07-07T06:36:59.866Z,4.60
2023-07-07T06:39:01.542Z,4.13
2023-07-07T06:41:04.651Z,5.43
2023-07-07T06:43:08.968Z,3.87
2023-07-07T06:45:11.166Z,4.83
2023-07-07T06:47:14.923Z,4.37
2023-07-07T06:49:16.791Z,3.50
2023-07-07T06:51:18.551Z,4.33
2023-07-07T06:53:20.213Z,4.33
2023-07-07T06:55:22.212Z,4.10
2023-07-07T06:57:25.293Z,4.03
2023-07-07T06:59:27.133Z,4.40
2023-07-07T07:01:28.834Z,3.70
2023-07-07T07:03:30.961Z,3.90
2023-07-07T07:05:32.762Z,7.70
2023-07-07T07:07:34.878Z,4.10
2023-07-07T07:09:36.948Z,3.80
2023-07-07T07:11:38.631Z,3.87
2023-07-07T07:13:41.714Z,3.80
2023-07-07T07:15:43.424Z,3.40
2023-07-07T07:17:45.126Z,3.00
2023-07-07T07:19:50.645Z,3.90
2023-07-07T07:21:54.730Z,3.27
2023-07-07T07:23:56.464Z,3.93
2023-07-07T07:25:58.255Z,3.80
2023-07-07T07:28:00.114Z,3.37
2023-07-07T07:30:03.540Z,4.00
2023-07-07T07:32:06.151Z,4.47
2023-07-07T07:34:25.563Z,3.70
2023-07-07T07:36:27.348Z,4.37
2023-07-07T07:38:29.062Z,4.17
2023-07-07T07:40:31.134Z,4.00
2023-07-07T07:42:32.875Z,4.03
2023-07-07T07:44:34.536Z,4.20
2023-07-07T07:46:37.975Z,4.10
2023-07-07T07:48:40.119Z,3.90
2023-07-07T07:50:42.025Z,3.87
2023-07-07T07:52:44.020Z,4.57
2023-07-07T07:54:46.060Z,4.60
2023-07-07T07:56:48.029Z,4.10
2023-07-07T07:58:49.780Z,4.30
2023-07-07T08:00:51.870Z,5.03
2023-07-07T08:02:55.093Z,3.90
2023-07-07T08:04:56.871Z,4.13
2023-07-07T08:06:58.804Z,4.00
2023-07-07T08:09:00.943Z,3.80
2023-07-07T08:11:13.894Z,3.40
2023-07-07T08:13:24.758Z,4.10
2023-07-07T08:15:33.514Z,4.30
2023-07-07T08:17:35.389Z,3.90
2023-07-07T08:19:40.509Z,3.00
2023-07-07T08:21:42.256Z,3.77
2023-07-07T08:23:43.921Z,4.33
2023-07-07T08:25:45.650Z,3.70
2023-07-07T08:29:52.082Z,4.17
2023-07-07T08:31:53.982Z,4.07
2023-07-07T08:34:00.535Z,3.50
2023-07-07T08:36:06.017Z,4.20
2023-07-07T08:38:10.087Z,4.13
2023-07-07T08:40:18.996Z,3.53
2023-07-07T08:42:25.260Z,4.67
2023-07-07T08:44:29.497Z,4.50
2023-07-07T08:46:43.805Z,4.30
2023-07-07T08:48:50.640Z,4.70
2023-07-07T08:50:57.427Z,4.20
2023-07-07T08:53:12.413Z,4.80
2023-07-07T08:55:37.788Z,5.43
2023-07-07T08:57:50.264Z,5.10
2023-07-07T09:00:00.294Z,4.80
2023-07-07T09:02:15.157Z,5.13
2023-07-07T09:04:41.844Z,5.23
2023-07-07T09:06:55.492Z,5.40
2023-07-07T09:09:11.908Z,3.50
2023-07-07T09:11:21.660Z,4.00
2023-07-07T09:13:28.117Z,3.37
2023-07-07T09:15:39.359Z,3.97
2023-07-07T09:17:46.248Z,3.73
2023-07-07T09:19:49.407Z,5.13
2023-07-07T09:21:56.605Z,5.90
2023-07-07T09:24:07.210Z,4.93
2023-07-07T09:26:16.990Z,4.13
2023-07-07T09:28:20.665Z,3.90
2023-07-07T09:30:30.020Z,3.40
2023-07-07T09:32:32.051Z,6.27
2023-07-07T09:34:34.049Z,6.37
2023-07-07T09:36:41.107Z,6.90
2023-07-07T09:38:53.015Z,5.37
2023-07-07T09:41:08.695Z,5.07
2023-07-07T09:43:21.513Z,4.90
2023-07-07T09:45:36.319Z,5.30
2023-07-07T09:47:45.293Z,5.00
2023-07-07T09:49:53.152Z,5.37
2023-07-07T09:52:03.868Z,5.20
2023-07-07T09:54:09.462Z,5.30
2023-07-07T09:56:15.990Z,5.00
2023-07-07T09:58:22.497Z,4.43
2023-07-07T10:00:39.468Z,5.40
2023-07-07T10:02:46.644Z,6.10
2023-07-07T10:04:53.402Z,5.47
2023-07-07T10:06:58.068Z,5.90
2023-07-07T10:09:00.935Z,5.73
2023-07-07T10:13:24.476Z,5.97
2023-07-07T10:15:48.973Z,6.17
2023-07-07T10:17:58.259Z,5.80
2023-07-07T10:20:02.831Z,5.10
2023-07-07T10:22:06.136Z,4.67
2023-07-07T10:24:11.281Z,4.87
2023-07-07T10:26:13.133Z,5.20
2023-07-07T10:28:18.244Z,6.40
2023-07-07T10:30:25.007Z,5.87
2023-07-07T10:32:28.347Z,6.30
2023-07-07T10:34:34.647Z,6.40
2023-07-07T10:36:39.160Z,7.20
2023-07-07T10:38:54.758Z,6.30
2023-07-07T10:40:58.290Z,7.67
2023-07-07T10:43:00.343Z,6.53
2023-07-07T10:45:04.285Z,6.53
2023-07-07T10:47:21.589Z,7.20
2023-07-07T10:49:26.309Z,6.40
2023-07-07T10:51:36.726Z,7.27
2023-07-07T10:53:50.312Z,6.57
2023-07-07T10:56:08.608Z,6.27
2023-07-07T10:58:24.466Z,7.13
2023-07-07T11:00:41.464Z,7.30
2023-07-07T11:03:02.459Z,7.67
2023-07-07T11:05:21.732Z,7.70
2023-07-07T11:07:33.211Z,7.80
2023-07-07T11:09:54.858Z,7.40
2023-07-07T11:12:02.702Z,6.03
2023-07-07T11:14:21.377Z,6.60
2023-07-07T11:16:36.696Z,6.97
2023-07-07T11:18:59.442Z,7.33
2023-07-07T11:21:13.227Z,6.57
2023-07-07T11:23:37.588Z,5.93
2023-07-07T11:25:46.589Z,6.80
2023-07-07T11:28:04.178Z,7.47
2023-07-07T11:30:15.989Z,7.97
2023-07-07T11:32:30.124Z,8.70
2023-07-07T11:34:46.049Z,8.47
2023-07-07T11:37:00.087Z,8.40
2023-07-07T11:39:11.740Z,8.80
2023-07-07T11:41:21.897Z,8.33
2023-07-07T11:43:37.032Z,8.10
2023-07-07T11:45:54.109Z,8.40
2023-07-07T11:48:20.713Z,7.30
2023-07-07T11:50:39.630Z,8.33
2023-07-07T11:52:57.463Z,7.07
2023-07-07T11:55:15.085Z,8.43
2023-07-07T11:57:31.186Z,9.03
2023-07-07T11:59:55.011Z,8.37
2023-07-07T12:01:59.051Z,9.07
2023-07-07T12:04:11.320Z,8.13
2023-07-07T12:06:23.124Z,8.00
2023-07-07T12:08:37.895Z,8.70
2023-07-07T12:10:45.518Z,9.30
2023-07-07T12:12:57.596Z,8.90
2023-07-07T12:15:04.573Z,9.50
2023-07-07T12:17:13.679Z,9.00
2023-07-07T12:19:24.486Z,9.83
2023-07-07T12:21:30.097Z,8.80
2023-07-07T12:23:36.979Z,8.57
2023-07-07T12:25:38.646Z,8.73
2023-07-07T12:27:44.492Z,9.30
2023-07-07T12:29:48.459Z,8.97
2023-07-07T12:31:50.124Z,9.50
2023-07-07T12:33:51.778Z,9.40
2023-07-07T12:35:57.397Z,10.83
2023-07-07T12:38:16.024Z,9.73
2023-07-07T12:40:19.943Z,10.73
2023-07-07T12:42:23.369Z,9.50
2023-07-07T12:44:27.000Z,10.17
2023-07-07T12:46:32.291Z,8.63
2023-07-07T12:48:34.181Z,8.93
2023-07-07T12:50:38.979Z,9.40
2023-07-07T12:52:45.174Z,10.47
2023-07-07T12:54:53.309Z,10.10
2023-07-07T12:57:04.165Z,10.87
2023-07-07T12:59:34.902Z,9.70
2023-07-07T13:01:38.193Z,10.90
2023-07-07T13:03:45.006Z,10.37
2023-07-07T13:05:53.621Z,10.70
2023-07-07T13:08:01.709Z,10.33
2023-07-07T13:10:06.665Z,11.77
2023-07-07T13:12:44.939Z,10.57
2023-07-07T13:14:46.803Z,9.67
2023-07-07T13:16:51.778Z,10.70
2023-07-07T13:18:53.831Z,11.27
2023-07-07T13:20:57.644Z,10.00
2023-07-07T13:23:05.806Z,10.90
2023-07-07T13:25:17.994Z,11.03
2023-07-07T13:27:23.714Z,12.03
2023-07-07T13:29:28.122Z,11.53
2023-07-07T13:31:29.872Z,12.10
2023-07-07T13:33:31.987Z,11.20
2023-07-07T13:35:36.836Z,11.17
2023-07-07T13:37:40.925Z,9.90
2023-07-07T13:39:43.142Z,11.33
2023-07-07T13:41:45.871Z,10.50
2023-07-07T13:43:49.652Z,10.10
2023-07-07T13:45:59.780Z,10.67
2023-07-07T13:48:09.748Z,12.10
2023-07-07T13:50:15.660Z,11.17
2023-07-07T13:52:21.482Z,11.13
2023-07-07T13:54:25.122Z,11.23
2023-07-07T13:56:28.280Z,11.53
2023-07-07T13:58:30.416Z,10.63
2023-07-07T14:00:35.842Z,12.20
2023-07-07T14:02:43.287Z,11.70
2023-07-07T14:04:48.633Z,11.80
2023-07-07T14:06:52.264Z,10.57
2023-07-07T14:08:56.725Z,10.67
2023-07-07T14:11:04.997Z,11.73
2023-07-07T14:13:13.646Z,12.20
2023-07-07T14:15:15.675Z,11.03
2023-07-07T14:17:22.004Z,12.33
2023-07-07T14:19:33.370Z,10.73
2023-07-07T14:21:35.704Z,10.50
2023-07-07T14:23:42.393Z,10.30
2023-07-07T14:25:48.815Z,11.03
2023-07-07T14:27:55.693Z,10.27
2023-07-07T14:29:58.516Z,10.03
2023-07-07T14:32:02.957Z,10.90
2023-07-07T14:34:05.074Z,10.63
2023-07-07T14:36:19.539Z,11.47
2023-07-07T14:38:30.266Z,10.20
2023-07-07T14:40:34.878Z,10.77
2023-07-07T14:42:36.772Z,10.80
2023-07-07T14:44:40.475Z,12.10
2023-07-07T14:46:42.322Z,11.93
2023-07-07T14:48:49.373Z,11.67
2023-07-07T14:50:52.809Z,12.47
2023-07-07T14:52:57.523Z,12.70
2023-07-07T14:55:01.285Z,11.67
2023-07-07T14:57:06.183Z,12.40
2023-07-07T14:59:18.342Z,11.47
2023-07-07T15:01:23.576Z,13.33
2023-07-07T15:03:33.173Z,12.67
2023-07-07T15:05:35.160Z,11.30
2023-07-07T15:07:36.974Z,11.67
2023-07-07T15:09:43.060Z,12.43
2023-07-07T15:11:45.995Z,11.73
2023-07-07T15:13:48.017Z,11.70
2023-07-07T15:15:53.742Z,12.63
2023-07-07T15:17:55.625Z,11.80
2023-07-07T15:19:57.537Z,12.00
2023-07-07T15:21:59.265Z,11.63
2023-07-07T15:24:00.976Z,10.87
2023-07-07T15:26:04.687Z,11.40
2023-07-07T15:28:11.831Z,11.00
2023-07-07T15:30:15.812Z,11.60
2023-07-07T15:32:20.205Z,10.20
2023-07-07T15:34:22.512Z,11.50
2023-07-07T15:36:29.093Z,12.47
2023-07-07T15:38:55.821Z,10.90
2023-07-07T15:40:57.572Z,11.93
2023-07-07T15:43:00.615Z,12.20
2023-07-07T15:45:02.410Z,12.00
2023-07-07T15:47:05.027Z,12.70
2023-07-07T15:49:13.445Z,11.70
2023-07-07T15:51:25.103Z,11.17
2023-07-07T15:53:26.827Z,9.73
2023-07-07T15:55:28.560Z,11.17
2023-07-07T15:57:30.345Z,9.70
2023-07-07T15:59:33.686Z,9.67
2023-07-07T16:01:35.442Z,9.90
2023-07-07T16:03:37.227Z,9.57
2023-07-07T16:05:39.313Z,9.67
2023-07-07T16:07:41.186Z,10.37
2023-07-07T16:09:43.068Z,11.40
2023-07-07T16:11:45.911Z,11.23
2023-07-07T16:13:52.006Z,10.70
2023-07-07T16:15:58.569Z,10.97
2023-07-07T16:18:00.467Z,11.43
2023-07-07T16:20:13.240Z,9.80
2023-07-07T16:22:16.846Z,11.00
2023-07-07T16:24:21.343Z,11.80
2023-07-07T16:26:28.469Z,10.67
2023-07-07T16:28:30.254Z,8.90
2023-07-07T16:30:40.076Z,10.57
2023-07-07T16:32:43.246Z,10.00
2023-07-07T16:34:45.075Z,9.33
2023-07-07T16:36:46.782Z,12.63
2023-07-07T16:38:50.030Z,11.33
2023-07-07T16:40:52.678Z,10.83
2023-07-07T16:42:54.385Z,11.63
2023-07-07T16:44:56.233Z,10.27
2023-07-07T16:46:57.978Z,11.10
2023-07-07T16:49:01.078Z,11.20
2023-07-07T16:51:05.346Z,11.30
2023-07-07T16:53:07.063Z,11.23
2023-07-07T16:55:11.593Z,10.87
2023-07-07T16:57:18.669Z,10.73
2023-07-07T16:59:20.374Z,10.70
2023-07-07T17:01:24.588Z,11.23
2023-07-07T17:03:26.384Z,10.90
2023-07-07T17:05:29.456Z,11.10
2023-07-07T17:07:31.144Z,12.00
2023-07-07T17:09:32.859Z,10.87
2023-07-07T17:11:34.499Z,10.80
2023-07-07T17:13:36.469Z,10.90
2023-07-07T17:15:38.152Z,10.90
2023-07-07T17:17:39.924Z,10.77
2023-07-07T17:19:41.747Z,10.53
2023-07-07T17:21:44.796Z,10.37
2023-07-07T17:23:50.269Z,9.53
2023-07-07T17:25:51.941Z,9.93
2023-07-07T17:27:56.300Z,9.50
2023-07-07T17:29:58.009Z,11.20
2023-07-07T17:31:59.641Z,9.60
2023-07-07T17:34:01.296Z,8.77
2023-07-07T17:36:19.757Z,9.80
2023-07-07T17:38:25.017Z,9.00
2023-07-07T17:40:36.633Z,10.83
2023-07-07T17:42:38.340Z,11.07
2023-07-07T17:44:40.033Z,10.20
2023-07-07T17:46:41.850Z,10.57
2023-07-07T17:48:43.492Z,10.33
2023-07-07T17:50:49.337Z,10.10
2023-07-07T17:52:51.466Z,9.97
2023-07-07T17:54:54.604Z,9.10
2023-07-07T17:56:56.224Z,10.80
2023-07-07T17:58:58.817Z,9.03
2023-07-07T18:01:00.707Z,10.20
2023-07-07T18:03:04.733Z,9.70
2023-07-07T18:05:07.191Z,9.70
2023-07-07T18:07:09.212Z,10.53
2023-07-07T18:09:13.707Z,10.30
2023-07-07T18:11:18.707Z,10.30
2023-07-07T18:13:20.361Z,10.80
2023-07-07T18:15:25.165Z,9.40
2023-07-07T18:17:37.689Z,9.40
2023-07-07T18:20:50.178Z,11.40
2023-07-07T18:22:11.518Z,10.97
2023-07-07T18:24:13.707Z,10.13
2023-07-07T18:26:30.874Z,9.93
2023-07-07T18:28:35.265Z,11.13
2023-07-07T18:30:41.559Z,11.57
2023-07-07T18:32:43.433Z,11.37
2023-07-07T18:34:45.067Z,10.50
2023-07-07T18:36:49.539Z,10.43
2023-07-07T18:38:51.686Z,9.50
2023-07-07T18:40:56.296Z,10.63
2023-07-07T18:42:59.599Z,10.40
2023-07-07T18:45:01.262Z,10.00
2023-07-07T18:47:03.190Z,11.27
2023-07-07T18:49:08.842Z,10.00
2023-07-07T18:51:17.298Z,10.20
2023-07-07T18:53:19.248Z,10.60
2023-07-07T18:55:20.911Z,9.80
2023-07-07T18:57:22.516Z,8.63
2023-07-07T18:59:28.659Z,10.57
2023-07-07T19:01:30.401Z,10.03
2023-07-07T19:03:32.275Z,11.30
2023-07-07T19:05:34.270Z,10.00
2023-07-07T19:07:38.369Z,9.57
2023-07-07T19:09:40.202Z,12.37
2023-07-07T19:11:42.304Z,11.77
2023-07-07T19:13:44.173Z,10.67
2023-07-07T19:15:49.919Z,10.70
2023-07-07T19:17:51.691Z,10.17
2023-07-07T19:19:53.352Z,11.60
2023-07-07T19:21:55.148Z,10.23
2023-07-07T19:23:58.217Z,11.00
2023-07-07T19:26:00.443Z,10.37
2023-07-07T19:28:02.296Z,11.20
2023-07-07T19:30:13.482Z,11.47
2023-07-07T19:32:16.895Z,11.73
2023-07-07T19:34:18.710Z,11.20
2023-07-07T19:36:23.241Z,12.20
2023-07-07T19:38:26.594Z,11.30
2023-07-07T19:40:32.242Z,11.63
2023-07-07T19:42:33.866Z,12.50
2023-07-07T19:44:35.461Z,12.80
2023-07-07T19:46:37.829Z,11.30
2023-07-07T19:48:41.070Z,11.87
2023-07-07T19:50:44.729Z,9.97
2023-07-07T19:52:46.463Z,11.30
2023-07-07T19:54:48.576Z,12.03
2023-07-07T19:56:50.508Z,13.07
2023-07-07T19:58:53.718Z,13.00
2023-07-07T20:00:55.352Z,13.40
2023-07-07T20:02:57.002Z,14.23
2023-07-07T20:05:00.689Z,18.63
2023-07-07T20:07:02.435Z,16.13
2023-07-07T20:09:06.715Z,15.47
2023-07-07T20:11:13.446Z,16.80
2023-07-07T20:13:15.077Z,15.50
2023-07-07T20:15:18.004Z,14.50
2023-07-07T20:17:19.848Z,14.20
2023-07-07T20:19:23.097Z,12.77
2023-07-07T20:21:27.130Z,11.03
2023-07-07T20:23:29.005Z,12.50
2023-07-07T20:25:30.766Z,11.43
2023-07-07T20:27:32.668Z,13.30
2023-07-07T20:29:34.644Z,11.73
2023-07-07T20:31:36.581Z,10.90
2023-07-07T20:33:38.215Z,11.77
2023-07-07T20:35:40.778Z,12.10
2023-07-07T20:37:43.753Z,11.03
2023-07-07T20:39:45.466Z,9.73
2023-07-07T20:41:48.843Z,11.47
2023-07-07T20:43:50.565Z,10.43
2023-07-07T20:45:52.307Z,11.03
2023-07-07T20:47:54.185Z,12.10
2023-07-07T20:49:55.877Z,10.50
2023-07-07T20:51:57.610Z,11.30
2023-07-07T20:54:00.698Z,11.60
2023-07-07T20:56:09.068Z,11.17
2023-07-07T20:58:11.449Z,10.30
2023-07-07T21:00:18.413Z,10.97
2023-07-07T21:02:20.196Z,11.13
2023-07-07T21:04:21.987Z,8.90
2023-07-07T21:06:24.006Z,10.47
2023-07-07T21:08:25.728Z,11.80
2023-07-07T21:10:32.626Z,11.63
2023-07-07T21:12:34.321Z,10.13
2023-07-07T21:14:36.468Z,10.40
2023-07-07T21:16:43.004Z,9.83
2023-07-07T21:18:44.749Z,12.10
2023-07-07T21:20:47.116Z,11.43
2023-07-07T21:22:48.716Z,10.20
2023-07-07T21:24:50.365Z,11.27
2023-07-07T21:26:53.665Z,11.40
2023-07-07T21:28:56.042Z,10.57
2023-07-07T21:30:57.850Z,10.17
2023-07-07T21:32:59.702Z,11.43
2023-07-07T21:35:01.525Z,10.30
2023-07-07T21:37:03.234Z,10.30
2023-07-07T21:39:17.694Z,9.70
2023-07-07T21:41:22.073Z,11.20
2023-07-07T21:43:26.933Z,9.80
2023-07-07T21:45:28.711Z,10.23
2023-07-07T21:47:30.356Z,9.90
2023-07-07T21:49:32.290Z,10.50
2023-07-07T21:51:33.927Z,10.33
2023-07-07T21:53:35.584Z,10.30
2023-07-07T21:55:37.814Z,10.70
2023-07-07T21:57:48.729Z,10.00
2023-07-07T21:59:51.848Z,10.80
2023-07-07T22:01:57.913Z,10.13
2023-07-07T22:03:59.666Z,9.50
2023-07-07T22:06:01.673Z,9.17
2023-07-07T22:08:03.366Z,9.80
2023-07-07T22:10:27.005Z,9.60
2023-07-07T22:12:28.626Z,10.50
2023-07-07T22:14:30.304Z,9.90
2023-07-07T22:16:33.576Z,8.90
2023-07-07T22:18:42.175Z,10.23
2023-07-07T22:20:58.762Z,9.30
2023-07-07T22:23:01.858Z,9.37
2023-07-07T22:25:03.858Z,9.23
2023-07-07T22:27:05.653Z,10.57
2023-07-07T22:29:11.756Z,9.63
2023-07-07T22:31:14.874Z,9.27
2023-07-07T22:33:18.130Z,9.37
2023-07-07T22:35:20.173Z,9.47
2023-07-07T22:37:21.774Z,9.60
2023-07-07T22:39:23.599Z,9.50
2023-07-07T22:41:27.213Z,9.90
2023-07-07T22:43:28.834Z,9.47
2023-07-07T22:45:30.459Z,9.10
2023-07-07T22:47:32.173Z,9.37
2023-07-07T22:49:35.230Z,9.37
2023-07-07T22:51:36.957Z,8.50
2023-07-07T22:53:38.600Z,9.27
2023-07-07T22:55:42.167Z,9.67
2023-07-07T22:57:44.457Z,9.60
2023-07-07T22:59:46.056Z,9.40
2023-07-07T23:01:47.709Z,9.73
2023-07-07T23:03:51.449Z,9.00
2023-07-07T23:05:54.566Z,9.23
2023-07-07T23:07:56.267Z,8.37
2023-07-07T23:09:59.604Z,9.10
2023-07-07T23:12:01.430Z,9.03
2023-07-07T23:14:03.077Z,8.40
2023-07-07T23:16:11.056Z,8.70
2023-07-07T23:18:14.311Z,8.50
2023-07-07T23:20:18.713Z,8.33
2023-07-07T23:22:23.870Z,8.50
2023-07-07T23:24:25.576Z,8.00
2023-07-07T23:26:27.174Z,8.53
2023-07-07T23:28:29.408Z,9.40
2023-07-07T23:30:33.256Z,8.97
2023-07-07T23:32:35.007Z,8.07
2023-07-07T23:34:36.665Z,8.30
2023-07-07T23:36:38.324Z,8.93
2023-07-07T23:38:41.322Z,9.00
2023-07-07T23:40:43.625Z,8.40
2023-07-07T23:42:45.356Z,8.40
2023-07-07T23:44:47.040Z,8.20
2023-07-07T23:46:48.827Z,8.47
2023-07-07T23:48:50.548Z,8.97
2023-07-07T23:50:55.259Z,9.37
2023-07-07T23:52:57.170Z,10.33
2023-07-07T23:55:00.119Z,9.73
2023-07-07T23:57:02.003Z,9.00
2023-07-07T23:59:09.149Z,9.30
